sensor_id;sensor_type;location;lat;lon;timestamp;P1;durP1;ratioP1;P2;durP2;ratioP2
24801;SDS011;12898;50.520;12.152;2022-07-10T00:00:34;8.93;;;3.10;;
24801;SDS011;12898;50.520;12.152;2022-07-10T00:03:01;11.50;;;3.03;;
24801;SDS011;12898;50.520;12.152;2022-07-10T00:05:27;6.97;;;3.03;;
24801;SDS011;12898;50.520;12.152;2022-07-10T00:07:53;11.55;;;3.13;;
24801;SDS011;12898;50.520;12.152;2022-07-10T00:10:20;10.02;;;3.38;;
24801;SDS011;12898;50.520;12.152;2022-07-10T00:12:47;7.25;;;2.78;;
24801;SDS011;12898;50.520;12.152;2022-07-10T00:15:14;8.45;;;2.80;;
24801;SDS011;12898;50.520;12.152;2022-07-10T00:17:41;6.05;;;2.80;;
24801;SDS011;12898;50.520;12.152;2022-07-10T00:20:08;6.53;;;2.58;;
24801;SDS011;12898;50.520;12.152;2022-07-10T00:22:36;6.88;;;3.20;;
24801;SDS011;12898;50.520;12.152;2022-07-10T00:25:03;10.40;;;3.33;;
24801;SDS011;12898;50.520;12.152;2022-07-10T00:27:30;5.60;;;2.60;;
24801;SDS011;12898;50.520;12.152;2022-07-10T00:29:56;8.15;;;3.38;;
24801;SDS011;12898;50.520;12.152;2022-07-10T00:32:22;6.82;;;2.78;;
24801;SDS011;12898;50.520;12.152;2022-07-10T00:34:48;10.68;;;2.88;;
24801;SDS011;12898;50.520;12.152;2022-07-10T00:37:15;7.40;;;2.83;;
24801;SDS011;12898;50.520;12.152;2022-07-10T00:39:41;5.03;;;2.42;;
24801;SDS011;12898;50.520;12.152;2022-07-10T00:42:10;9.75;;;4.22;;
24801;SDS011;12898;50.520;12.152;2022-07-10T00:44:38;11.57;;;2.70;;
24801;SDS011;12898;50.520;12.152;2022-07-10T00:47:05;8.65;;;2.83;;
24801;SDS011;12898;50.520;12.152;2022-07-10T00:49:34;9.60;;;2.63;;
24801;SDS011;12898;50.520;12.152;2022-07-10T00:52:01;5.43;;;2.50;;
24801;SDS011;12898;50.520;12.152;2022-07-10T00:54:31;9.07;;;2.75;;
24801;SDS011;12898;50.520;12.152;2022-07-10T00:56:59;7.25;;;2.38;;
24801;SDS011;12898;50.520;12.152;2022-07-10T00:59:26;3.75;;;2.35;;
24801;SDS011;12898;50.520;12.152;2022-07-10T01:01:52;6.93;;;2.28;;
24801;SDS011;12898;50.520;12.152;2022-07-10T01:04:19;5.10;;;2.22;;
24801;SDS011;12898;50.520;12.152;2022-07-10T01:06:45;7.72;;;2.53;;
24801;SDS011;12898;50.520;12.152;2022-07-10T01:09:11;7.57;;;2.53;;
24801;SDS011;12898;50.520;12.152;2022-07-10T01:11:37;9.40;;;2.60;;
24801;SDS011;12898;50.520;12.152;2022-07-10T01:14:03;4.88;;;2.33;;
24801;SDS011;12898;50.520;12.152;2022-07-10T01:16:29;8.45;;;2.42;;
24801;SDS011;12898;50.520;12.152;2022-07-10T01:18:56;9.02;;;2.55;;
24801;SDS011;12898;50.520;12.152;2022-07-10T01:21:29;10.43;;;2.78;;
24801;SDS011;12898;50.520;12.152;2022-07-10T01:23:57;5.93;;;2.70;;
24801;SDS011;12898;50.520;12.152;2022-07-10T01:26:24;8.40;;;2.30;;
24801;SDS011;12898;50.520;12.152;2022-07-10T01:28:51;10.77;;;2.72;;
24801;SDS011;12898;50.520;12.152;2022-07-10T01:31:18;9.35;;;2.83;;
24801;SDS011;12898;50.520;12.152;2022-07-10T01:33:51;6.32;;;2.20;;
24801;SDS011;12898;50.520;12.152;2022-07-10T01:36:19;7.40;;;2.22;;
24801;SDS011;12898;50.520;12.152;2022-07-10T01:38:45;7.82;;;2.50;;
24801;SDS011;12898;50.520;12.152;2022-07-10T01:41:11;9.07;;;2.13;;
24801;SDS011;12898;50.520;12.152;2022-07-10T01:43:37;6.50;;;2.30;;
24801;SDS011;12898;50.520;12.152;2022-07-10T01:46:07;12.10;;;2.60;;
24801;SDS011;12898;50.520;12.152;2022-07-10T01:48:35;8.02;;;2.78;;
24801;SDS011;12898;50.520;12.152;2022-07-10T01:51:05;6.10;;;2.08;;
24801;SDS011;12898;50.520;12.152;2022-07-10T01:53:31;8.75;;;2.70;;
24801;SDS011;12898;50.520;12.152;2022-07-10T01:55:58;9.13;;;2.28;;
24801;SDS011;12898;50.520;12.152;2022-07-10T01:58:26;11.40;;;2.42;;
24801;SDS011;12898;50.520;12.152;2022-07-10T02:00:51;11.00;;;2.40;;
24801;SDS011;12898;50.520;12.152;2022-07-10T02:03:17;5.47;;;2.28;;
24801;SDS011;12898;50.520;12.152;2022-07-10T02:06:01;9.90;;;2.38;;
24801;SDS011;12898;50.520;12.152;2022-07-10T02:08:27;6.80;;;2.38;;
24801;SDS011;12898;50.520;12.152;2022-07-10T02:10:52;12.00;;;2.40;;
24801;SDS011;12898;50.520;12.152;2022-07-10T02:13:19;9.05;;;2.22;;
24801;SDS011;12898;50.520;12.152;2022-07-10T02:15:45;8.15;;;2.38;;
24801;SDS011;12898;50.520;12.152;2022-07-10T02:18:12;10.55;;;2.67;;
24801;SDS011;12898;50.520;12.152;2022-07-10T02:20:38;11.55;;;2.55;;
24801;SDS011;12898;50.520;12.152;2022-07-10T02:23:04;4.43;;;2.22;;
24801;SDS011;12898;50.520;12.152;2022-07-10T02:25:31;7.72;;;2.28;;
24801;SDS011;12898;50.520;12.152;2022-07-10T02:27:58;10.13;;;2.75;;
24801;SDS011;12898;50.520;12.152;2022-07-10T02:30:25;13.38;;;2.47;;
24801;SDS011;12898;50.520;12.152;2022-07-10T02:32:51;8.05;;;2.15;;
24801;SDS011;12898;50.520;12.152;2022-07-10T02:35:16;7.28;;;2.22;;
24801;SDS011;12898;50.520;12.152;2022-07-10T02:37:42;7.03;;;2.60;;
24801;SDS011;12898;50.520;12.152;2022-07-10T02:40:09;6.07;;;2.50;;
24801;SDS011;12898;50.520;12.152;2022-07-10T02:42:34;5.65;;;2.15;;
24801;SDS011;12898;50.520;12.152;2022-07-10T02:45:00;7.78;;;2.30;;
24801;SDS011;12898;50.520;12.152;2022-07-10T02:47:26;7.22;;;1.95;;
24801;SDS011;12898;50.520;12.152;2022-07-10T02:49:51;4.88;;;2.50;;
24801;SDS011;12898;50.520;12.152;2022-07-10T02:52:17;6.00;;;2.40;;
24801;SDS011;12898;50.520;12.152;2022-07-10T02:54:43;9.27;;;2.40;;
24801;SDS011;12898;50.520;12.152;2022-07-10T02:57:09;9.20;;;2.38;;
24801;SDS011;12898;50.520;12.152;2022-07-10T02:59:34;7.05;;;2.35;;
24801;SDS011;12898;50.520;12.152;2022-07-10T03:02:00;5.35;;;3.10;;
24801;SDS011;12898;50.520;12.152;2022-07-10T03:04:26;16.65;;;2.88;;
24801;SDS011;12898;50.520;12.152;2022-07-10T03:06:52;5.45;;;2.38;;
24801;SDS011;12898;50.520;12.152;2022-07-10T03:09:18;7.78;;;2.65;;
24801;SDS011;12898;50.520;12.152;2022-07-10T03:11:44;3.35;;;2.00;;
24801;SDS011;12898;50.520;12.152;2022-07-10T03:14:10;7.25;;;2.25;;
24801;SDS011;12898;50.520;12.152;2022-07-10T03:16:35;6.75;;;2.45;;
24801;SDS011;12898;50.520;12.152;2022-07-10T03:19:01;6.93;;;2.03;;
24801;SDS011;12898;50.520;12.152;2022-07-10T03:21:27;7.05;;;2.03;;
24801;SDS011;12898;50.520;12.152;2022-07-10T03:23:55;6.00;;;2.10;;
24801;SDS011;12898;50.520;12.152;2022-07-10T03:26:20;10.48;;;2.17;;
24801;SDS011;12898;50.520;12.152;2022-07-10T03:28:46;4.78;;;2.50;;
24801;SDS011;12898;50.520;12.152;2022-07-10T03:31:12;7.82;;;2.15;;
24801;SDS011;12898;50.520;12.152;2022-07-10T03:33:37;11.73;;;2.40;;
24801;SDS011;12898;50.520;12.152;2022-07-10T03:36:04;3.50;;;2.33;;
24801;SDS011;12898;50.520;12.152;2022-07-10T03:38:30;8.00;;;2.40;;
24801;SDS011;12898;50.520;12.152;2022-07-10T03:40:56;11.32;;;2.67;;
24801;SDS011;12898;50.520;12.152;2022-07-10T03:43:22;8.63;;;2.20;;
24801;SDS011;12898;50.520;12.152;2022-07-10T03:45:47;5.47;;;2.03;;
24801;SDS011;12898;50.520;12.152;2022-07-10T03:48:13;8.18;;;2.45;;
24801;SDS011;12898;50.520;12.152;2022-07-10T03:50:39;8.10;;;2.40;;
24801;SDS011;12898;50.520;12.152;2022-07-10T03:53:04;7.13;;;2.40;;
24801;SDS011;12898;50.520;12.152;2022-07-10T03:55:30;8.02;;;2.28;;
24801;SDS011;12898;50.520;12.152;2022-07-10T03:57:56;7.05;;;2.38;;
24801;SDS011;12898;50.520;12.152;2022-07-10T04:00:23;6.43;;;2.03;;
24801;SDS011;12898;50.520;12.152;2022-07-10T04:02:58;4.82;;;2.05;;
24801;SDS011;12898;50.520;12.152;2022-07-10T04:05:28;6.00;;;1.98;;
24801;SDS011;12898;50.520;12.152;2022-07-10T04:07:54;8.02;;;2.00;;
24801;SDS011;12898;50.520;12.152;2022-07-10T04:10:22;12.07;;;2.58;;
24801;SDS011;12898;50.520;12.152;2022-07-10T04:12:49;7.32;;;2.00;;
24801;SDS011;12898;50.520;12.152;2022-07-10T04:15:15;7.85;;;1.88;;
24801;SDS011;12898;50.520;12.152;2022-07-10T04:17:41;9.63;;;2.10;;
24801;SDS011;12898;50.520;12.152;2022-07-10T04:20:07;7.13;;;2.25;;
24801;SDS011;12898;50.520;12.152;2022-07-10T04:22:34;6.25;;;2.20;;
24801;SDS011;12898;50.520;12.152;2022-07-10T04:25:00;5.43;;;1.83;;
24801;SDS011;12898;50.520;12.152;2022-07-10T04:27:26;7.53;;;2.22;;
24801;SDS011;12898;50.520;12.152;2022-07-10T04:29:51;12.15;;;2.20;;
24801;SDS011;12898;50.520;12.152;2022-07-10T04:32:17;8.40;;;2.20;;
24801;SDS011;12898;50.520;12.152;2022-07-10T04:34:43;5.68;;;1.65;;
24801;SDS011;12898;50.520;12.152;2022-07-10T04:37:09;7.68;;;2.00;;
24801;SDS011;12898;50.520;12.152;2022-07-10T04:39:35;5.70;;;1.90;;
24801;SDS011;12898;50.520;12.152;2022-07-10T04:42:02;12.60;;;2.35;;
24801;SDS011;12898;50.520;12.152;2022-07-10T04:44:29;7.15;;;1.50;;
24801;SDS011;12898;50.520;12.152;2022-07-10T04:46:56;5.72;;;1.65;;
24801;SDS011;12898;50.520;12.152;2022-07-10T04:49:21;8.25;;;1.77;;
24801;SDS011;12898;50.520;12.152;2022-07-10T04:51:47;7.72;;;2.45;;
24801;SDS011;12898;50.520;12.152;2022-07-10T04:54:13;4.50;;;1.70;;
24801;SDS011;12898;50.520;12.152;2022-07-10T04:56:38;6.45;;;1.55;;
24801;SDS011;12898;50.520;12.152;2022-07-10T04:59:04;11.50;;;1.85;;
24801;SDS011;12898;50.520;12.152;2022-07-10T05:01:30;3.70;;;1.40;;
24801;SDS011;12898;50.520;12.152;2022-07-10T05:03:55;5.22;;;1.40;;
24801;SDS011;12898;50.520;12.152;2022-07-10T05:06:21;6.15;;;1.83;;
24801;SDS011;12898;50.520;12.152;2022-07-10T05:08:47;4.70;;;1.60;;
24801;SDS011;12898;50.520;12.152;2022-07-10T05:11:13;9.85;;;1.60;;
24801;SDS011;12898;50.520;12.152;2022-07-10T05:13:39;5.93;;;1.40;;
24801;SDS011;12898;50.520;12.152;2022-07-10T05:16:05;9.00;;;1.55;;
24801;SDS011;12898;50.520;12.152;2022-07-10T05:18:31;7.70;;;1.60;;
24801;SDS011;12898;50.520;12.152;2022-07-10T05:20:56;7.03;;;1.45;;
24801;SDS011;12898;50.520;12.152;2022-07-10T05:23:22;7.65;;;1.65;;
24801;SDS011;12898;50.520;12.152;2022-07-10T05:25:49;5.65;;;1.40;;
24801;SDS011;12898;50.520;12.152;2022-07-10T05:28:14;6.03;;;1.60;;
24801;SDS011;12898;50.520;12.152;2022-07-10T05:30:40;7.43;;;1.35;;
24801;SDS011;12898;50.520;12.152;2022-07-10T05:33:06;6.28;;;1.52;;
24801;SDS011;12898;50.520;12.152;2022-07-10T05:35:32;6.68;;;1.40;;
24801;SDS011;12898;50.520;12.152;2022-07-10T05:37:59;6.05;;;1.52;;
24801;SDS011;12898;50.520;12.152;2022-07-10T05:40:25;9.48;;;2.08;;
24801;SDS011;12898;50.520;12.152;2022-07-10T05:42:50;10.40;;;1.77;;
24801;SDS011;12898;50.520;12.152;2022-07-10T05:45:17;5.50;;;1.40;;
24801;SDS011;12898;50.520;12.152;2022-07-10T05:47:43;6.35;;;1.50;;
24801;SDS011;12898;50.520;12.152;2022-07-10T05:50:09;6.63;;;1.52;;
24801;SDS011;12898;50.520;12.152;2022-07-10T05:52:36;4.60;;;1.25;;
24801;SDS011;12898;50.520;12.152;2022-07-10T05:55:02;3.20;;;1.13;;
24801;SDS011;12898;50.520;12.152;2022-07-10T05:57:29;8.52;;;1.98;;
24801;SDS011;12898;50.520;12.152;2022-07-10T05:59:56;5.43;;;1.17;;
24801;SDS011;12898;50.520;12.152;2022-07-10T06:02:22;5.80;;;1.17;;
24801;SDS011;12898;50.520;12.152;2022-07-10T06:04:48;5.72;;;1.10;;
24801;SDS011;12898;50.520;12.152;2022-07-10T06:07:14;7.32;;;1.40;;
24801;SDS011;12898;50.520;12.152;2022-07-10T06:09:40;4.80;;;1.15;;
24801;SDS011;12898;50.520;12.152;2022-07-10T06:12:07;4.28;;;1.35;;
24801;SDS011;12898;50.520;12.152;2022-07-10T06:14:33;4.22;;;1.20;;
24801;SDS011;12898;50.520;12.152;2022-07-10T06:16:59;5.82;;;1.15;;
24801;SDS011;12898;50.520;12.152;2022-07-10T06:19:24;8.65;;;1.20;;
24801;SDS011;12898;50.520;12.152;2022-07-10T06:21:50;5.88;;;1.45;;
24801;SDS011;12898;50.520;12.152;2022-07-10T06:24:36;6.72;;;1.42;;
24801;SDS011;12898;50.520;12.152;2022-07-10T06:27:05;7.32;;;1.20;;
24801;SDS011;12898;50.520;12.152;2022-07-10T06:29:30;10.10;;;1.48;;
24801;SDS011;12898;50.520;12.152;2022-07-10T06:31:56;11.63;;;1.42;;
24801;SDS011;12898;50.520;12.152;2022-07-10T06:34:22;10.95;;;1.52;;
24801;SDS011;12898;50.520;12.152;2022-07-10T06:36:48;7.00;;;1.40;;
24801;SDS011;12898;50.520;12.152;2022-07-10T06:39:14;5.82;;;1.10;;
24801;SDS011;12898;50.520;12.152;2022-07-10T06:41:39;6.53;;;1.42;;
24801;SDS011;12898;50.520;12.152;2022-07-10T06:44:05;3.70;;;1.00;;
24801;SDS011;12898;50.520;12.152;2022-07-10T06:46:31;7.45;;;1.10;;
24801;SDS011;12898;50.520;12.152;2022-07-10T06:48:57;8.25;;;1.67;;
24801;SDS011;12898;50.520;12.152;2022-07-10T06:51:24;6.80;;;1.30;;
24801;SDS011;12898;50.520;12.152;2022-07-10T06:53:50;6.82;;;1.50;;
24801;SDS011;12898;50.520;12.152;2022-07-10T06:56:15;6.93;;;1.38;;
24801;SDS011;12898;50.520;12.152;2022-07-10T06:58:41;7.13;;;1.20;;
24801;SDS011;12898;50.520;12.152;2022-07-10T07:01:07;4.68;;;1.27;;
24801;SDS011;12898;50.520;12.152;2022-07-10T07:03:33;7.53;;;1.35;;
24801;SDS011;12898;50.520;12.152;2022-07-10T07:05:59;4.13;;;1.02;;
24801;SDS011;12898;50.520;12.152;2022-07-10T07:08:25;8.40;;;1.73;;
24801;SDS011;12898;50.520;12.152;2022-07-10T07:10:50;6.28;;;1.10;;
24801;SDS011;12898;50.520;12.152;2022-07-10T07:13:16;4.93;;;1.15;;
24801;SDS011;12898;50.520;12.152;2022-07-10T07:15:42;4.35;;;1.02;;
24801;SDS011;12898;50.520;12.152;2022-07-10T07:18:14;5.28;;;1.20;;
24801;SDS011;12898;50.520;12.152;2022-07-10T07:20:41;4.63;;;1.40;;
24801;SDS011;12898;50.520;12.152;2022-07-10T07:23:25;5.00;;;1.05;;
24801;SDS011;12898;50.520;12.152;2022-07-10T07:25:52;5.97;;;1.50;;
24801;SDS011;12898;50.520;12.152;2022-07-10T07:28:18;9.60;;;1.60;;
24801;SDS011;12898;50.520;12.152;2022-07-10T07:30:47;5.70;;;1.42;;
24801;SDS011;12898;50.520;12.152;2022-07-10T07:33:13;6.88;;;1.30;;
24801;SDS011;12898;50.520;12.152;2022-07-10T07:35:39;7.88;;;1.65;;
24801;SDS011;12898;50.520;12.152;2022-07-10T07:38:05;5.47;;;1.02;;
24801;SDS011;12898;50.520;12.152;2022-07-10T07:40:31;6.30;;;1.10;;
24801;SDS011;12898;50.520;12.152;2022-07-10T07:42:58;7.40;;;1.58;;
24801;SDS011;12898;50.520;12.152;2022-07-10T07:45:24;3.00;;;0.80;;
24801;SDS011;12898;50.520;12.152;2022-07-10T07:47:54;4.90;;;0.90;;
24801;SDS011;12898;50.520;12.152;2022-07-10T07:50:32;6.95;;;1.05;;
24801;SDS011;12898;50.520;12.152;2022-07-10T07:53:01;4.03;;;1.33;;
24801;SDS011;12898;50.520;12.152;2022-07-10T07:55:28;4.78;;;1.23;;
24801;SDS011;12898;50.520;12.152;2022-07-10T07:57:56;7.50;;;1.27;;
24801;SDS011;12898;50.520;12.152;2022-07-10T08:00:23;6.70;;;0.88;;
24801;SDS011;12898;50.520;12.152;2022-07-10T08:02:51;3.65;;;0.90;;
24801;SDS011;12898;50.520;12.152;2022-07-10T08:05:19;10.32;;;1.45;;
24801;SDS011;12898;50.520;12.152;2022-07-10T08:07:46;6.55;;;1.38;;
24801;SDS011;12898;50.520;12.152;2022-07-10T08:10:15;6.03;;;1.20;;
24801;SDS011;12898;50.520;12.152;2022-07-10T08:12:44;6.55;;;1.20;;
24801;SDS011;12898;50.520;12.152;2022-07-10T08:15:17;3.80;;;1.00;;
24801;SDS011;12898;50.520;12.152;2022-07-10T08:17:47;5.07;;;0.80;;
24801;SDS011;12898;50.520;12.152;2022-07-10T08:20:23;4.40;;;1.25;;
24801;SDS011;12898;50.520;12.152;2022-07-10T08:22:51;4.85;;;0.90;;
24801;SDS011;12898;50.520;12.152;2022-07-10T08:25:18;6.57;;;1.05;;
24801;SDS011;12898;50.520;12.152;2022-07-10T08:27:45;6.20;;;0.93;;
24801;SDS011;12898;50.520;12.152;2022-07-10T08:30:11;3.90;;;0.88;;
24801;SDS011;12898;50.520;12.152;2022-07-10T08:32:37;6.20;;;1.15;;
24801;SDS011;12898;50.520;12.152;2022-07-10T08:35:04;5.25;;;1.02;;
24801;SDS011;12898;50.520;12.152;2022-07-10T08:37:38;2.90;;;0.80;;
24801;SDS011;12898;50.520;12.152;2022-07-10T08:40:11;2.42;;;0.90;;
24801;SDS011;12898;50.520;12.152;2022-07-10T08:42:40;4.55;;;0.90;;
24801;SDS011;12898;50.520;12.152;2022-07-10T08:45:13;5.55;;;1.02;;
24801;SDS011;12898;50.520;12.152;2022-07-10T08:47:42;5.75;;;0.90;;
24801;SDS011;12898;50.520;12.152;2022-07-10T08:50:23;3.88;;;0.85;;
24801;SDS011;12898;50.520;12.152;2022-07-10T08:52:58;2.22;;;0.85;;
24801;SDS011;12898;50.520;12.152;2022-07-10T08:55:38;4.65;;;0.85;;
24801;SDS011;12898;50.520;12.152;2022-07-10T08:58:04;3.42;;;0.70;;
24801;SDS011;12898;50.520;12.152;2022-07-10T09:00:33;2.35;;;0.70;;
24801;SDS011;12898;50.520;12.152;2022-07-10T09:02:59;2.60;;;0.60;;
24801;SDS011;12898;50.520;12.152;2022-07-10T09:05:25;5.05;;;0.77;;
24801;SDS011;12898;50.520;12.152;2022-07-10T09:07:55;6.18;;;0.82;;
24801;SDS011;12898;50.520;12.152;2022-07-10T09:10:24;3.33;;;0.75;;
24801;SDS011;12898;50.520;12.152;2022-07-10T09:12:52;2.22;;;0.60;;
24801;SDS011;12898;50.520;12.152;2022-07-10T09:15:26;2.45;;;0.68;;
24801;SDS011;12898;50.520;12.152;2022-07-10T09:18:03;4.95;;;0.93;;
24801;SDS011;12898;50.520;12.152;2022-07-10T09:25:44;5.90;;;0.80;;
24801;SDS011;12898;50.520;12.152;2022-07-10T09:28:12;2.58;;;0.80;;
24801;SDS011;12898;50.520;12.152;2022-07-10T09:30:41;2.67;;;0.60;;
24801;SDS011;12898;50.520;12.152;2022-07-10T09:36:02;4.50;;;1.20;;
24801;SDS011;12898;50.520;12.152;2022-07-10T09:43:50;3.50;;;0.80;;
24801;SDS011;12898;50.520;12.152;2022-07-10T09:46:38;5.32;;;0.90;;
24801;SDS011;12898;50.520;12.152;2022-07-10T09:51:44;4.45;;;0.85;;
24801;SDS011;12898;50.520;12.152;2022-07-10T09:54:11;2.90;;;0.57;;
24801;SDS011;12898;50.520;12.152;2022-07-10T09:59:10;6.30;;;0.80;;
24801;SDS011;12898;50.520;12.152;2022-07-10T10:04:15;5.35;;;0.88;;
24801;SDS011;12898;50.520;12.152;2022-07-10T10:06:49;2.78;;;0.60;;
24801;SDS011;12898;50.520;12.152;2022-07-10T10:12:12;4.35;;;0.77;;
24801;SDS011;12898;50.520;12.152;2022-07-10T10:14:46;1.50;;;0.52;;
24801;SDS011;12898;50.520;12.152;2022-07-10T10:17:13;2.40;;;0.60;;
24801;SDS011;12898;50.520;12.152;2022-07-10T10:19:41;5.28;;;0.60;;
24801;SDS011;12898;50.520;12.152;2022-07-10T10:22:25;2.47;;;0.70;;
24801;SDS011;12898;50.520;12.152;2022-07-10T10:24:53;2.53;;;0.80;;
24801;SDS011;12898;50.520;12.152;2022-07-10T10:27:20;2.70;;;0.52;;
24801;SDS011;12898;50.520;12.152;2022-07-10T10:29:47;2.28;;;0.63;;
24801;SDS011;12898;50.520;12.152;2022-07-10T10:32:13;0.80;;;0.60;;
24801;SDS011;12898;50.520;12.152;2022-07-10T10:34:40;2.13;;;0.70;;
24801;SDS011;12898;50.520;12.152;2022-07-10T10:37:33;2.83;;;0.77;;
24801;SDS011;12898;50.520;12.152;2022-07-10T10:40:07;3.50;;;0.93;;
24801;SDS011;12898;50.520;12.152;2022-07-10T10:42:36;3.15;;;0.70;;
24801;SDS011;12898;50.520;12.152;2022-07-10T10:58:39;8.00;;;0.90;;
24801;SDS011;12898;50.520;12.152;2022-07-10T11:09:31;7.03;;;1.05;;
24801;SDS011;12898;50.520;12.152;2022-07-10T11:14:28;5.90;;;1.55;;
24801;SDS011;12898;50.520;12.152;2022-07-10T11:16:55;2.90;;;0.93;;
24801;SDS011;12898;50.520;12.152;2022-07-10T11:19:21;5.93;;;1.23;;
24801;SDS011;12898;50.520;12.152;2022-07-10T11:21:55;3.33;;;0.85;;
24801;SDS011;12898;50.520;12.152;2022-07-10T11:30:18;2.38;;;0.77;;
24801;SDS011;12898;50.520;12.152;2022-07-10T11:32:44;4.60;;;1.15;;
24801;SDS011;12898;50.520;12.152;2022-07-10T11:35:11;4.53;;;0.93;;
24801;SDS011;12898;50.520;12.152;2022-07-10T11:37:48;3.60;;;0.82;;
24801;SDS011;12898;50.520;12.152;2022-07-10T11:40:17;3.70;;;0.77;;
24801;SDS011;12898;50.520;12.152;2022-07-10T11:42:54;3.63;;;0.90;;
24801;SDS011;12898;50.520;12.152;2022-07-10T11:45:29;4.50;;;0.90;;
24801;SDS011;12898;50.520;12.152;2022-07-10T11:47:58;3.53;;;0.75;;
24801;SDS011;12898;50.520;12.152;2022-07-10T11:50:25;3.22;;;0.90;;
24801;SDS011;12898;50.520;12.152;2022-07-10T11:52:52;4.40;;;0.68;;
24801;SDS011;12898;50.520;12.152;2022-07-10T11:55:19;2.25;;;0.93;;
24801;SDS011;12898;50.520;12.152;2022-07-10T11:57:47;2.35;;;0.80;;
24801;SDS011;12898;50.520;12.152;2022-07-10T12:00:23;1.60;;;0.70;;
24801;SDS011;12898;50.520;12.152;2022-07-10T12:02:51;3.80;;;1.00;;
24801;SDS011;12898;50.520;12.152;2022-07-10T12:05:35;4.03;;;0.95;;
24801;SDS011;12898;50.520;12.152;2022-07-10T12:08:03;4.43;;;0.90;;
24801;SDS011;12898;50.520;12.152;2022-07-10T12:10:31;2.15;;;0.73;;
24801;SDS011;12898;50.520;12.152;2022-07-10T12:15:41;3.28;;;0.90;;
24801;SDS011;12898;50.520;12.152;2022-07-10T12:18:19;7.63;;;2.22;;
24801;SDS011;12898;50.520;12.152;2022-07-10T12:20:46;4.18;;;1.63;;
24801;SDS011;12898;50.520;12.152;2022-07-10T12:23:14;6.22;;;1.13;;
24801;SDS011;12898;50.520;12.152;2022-07-10T12:25:42;4.07;;;1.00;;
24801;SDS011;12898;50.520;12.152;2022-07-10T12:28:09;4.72;;;1.48;;
24801;SDS011;12898;50.520;12.152;2022-07-10T12:30:41;2.70;;;1.00;;
24801;SDS011;12898;50.520;12.152;2022-07-10T12:33:13;2.28;;;0.88;;
24801;SDS011;12898;50.520;12.152;2022-07-10T12:35:56;5.00;;;1.50;;
24801;SDS011;12898;50.520;12.152;2022-07-10T12:38:27;6.65;;;1.20;;
24801;SDS011;12898;50.520;12.152;2022-07-10T12:41:11;3.15;;;0.95;;
24801;SDS011;12898;50.520;12.152;2022-07-10T12:43:39;3.65;;;0.93;;
24801;SDS011;12898;50.520;12.152;2022-07-10T12:46:12;2.22;;;0.82;;
24801;SDS011;12898;50.520;12.152;2022-07-10T12:51:30;4.40;;;1.25;;
24801;SDS011;12898;50.520;12.152;2022-07-10T12:54:08;3.72;;;1.08;;
24801;SDS011;12898;50.520;12.152;2022-07-10T12:56:37;2.10;;;1.00;;
24801;SDS011;12898;50.520;12.152;2022-07-10T12:59:12;3.55;;;1.00;;
24801;SDS011;12898;50.520;12.152;2022-07-10T13:01:44;5.25;;;1.05;;
24801;SDS011;12898;50.520;12.152;2022-07-10T13:04:10;7.32;;;1.00;;
24801;SDS011;12898;50.520;12.152;2022-07-10T13:06:38;6.25;;;1.40;;
24801;SDS011;12898;50.520;12.152;2022-07-10T13:09:18;2.25;;;0.85;;
24801;SDS011;12898;50.520;12.152;2022-07-10T13:11:49;3.30;;;0.95;;
24801;SDS011;12898;50.520;12.152;2022-07-10T13:14:17;5.60;;;1.15;;
24801;SDS011;12898;50.520;12.152;2022-07-10T13:16:42;4.80;;;1.02;;
24801;SDS011;12898;50.520;12.152;2022-07-10T13:19:08;5.43;;;0.80;;
24801;SDS011;12898;50.520;12.152;2022-07-10T13:21:34;4.50;;;1.10;;
24801;SDS011;12898;50.520;12.152;2022-07-10T13:24:01;4.30;;;1.30;;
24801;SDS011;12898;50.520;12.152;2022-07-10T13:26:28;4.93;;;1.10;;
24801;SDS011;12898;50.520;12.152;2022-07-10T13:28:55;3.10;;;0.90;;
24801;SDS011;12898;50.520;12.152;2022-07-10T13:31:22;4.47;;;1.10;;
24801;SDS011;12898;50.520;12.152;2022-07-10T13:33:48;3.33;;;0.93;;
24801;SDS011;12898;50.520;12.152;2022-07-10T13:36:14;4.00;;;1.00;;
24801;SDS011;12898;50.520;12.152;2022-07-10T13:38:39;3.47;;;1.30;;
24801;SDS011;12898;50.520;12.152;2022-07-10T13:41:07;5.28;;;1.30;;
24801;SDS011;12898;50.520;12.152;2022-07-10T13:43:33;3.80;;;1.30;;
24801;SDS011;12898;50.520;12.152;2022-07-10T13:46:00;6.22;;;1.20;;
24801;SDS011;12898;50.520;12.152;2022-07-10T13:48:27;3.83;;;1.05;;
24801;SDS011;12898;50.520;12.152;2022-07-10T13:50:53;2.97;;;0.82;;
24801;SDS011;12898;50.520;12.152;2022-07-10T13:53:19;7.28;;;1.30;;
24801;SDS011;12898;50.520;12.152;2022-07-10T13:55:46;4.90;;;1.40;;
24801;SDS011;12898;50.520;12.152;2022-07-10T13:58:13;4.85;;;1.10;;
24801;SDS011;12898;50.520;12.152;2022-07-10T14:00:39;4.55;;;1.00;;
24801;SDS011;12898;50.520;12.152;2022-07-10T14:03:05;6.25;;;1.08;;
24801;SDS011;12898;50.520;12.152;2022-07-10T14:05:32;3.25;;;0.98;;
24801;SDS011;12898;50.520;12.152;2022-07-10T14:07:58;4.97;;;1.30;;
24801;SDS011;12898;50.520;12.152;2022-07-10T14:10:25;5.95;;;1.20;;
24801;SDS011;12898;50.520;12.152;2022-07-10T14:12:52;5.22;;;1.00;;
24801;SDS011;12898;50.520;12.152;2022-07-10T14:15:18;4.15;;;1.00;;
24801;SDS011;12898;50.520;12.152;2022-07-10T14:17:44;5.88;;;1.02;;
24801;SDS011;12898;50.520;12.152;2022-07-10T14:20:11;7.28;;;1.27;;
24801;SDS011;12898;50.520;12.152;2022-07-10T14:22:37;4.55;;;0.90;;
24801;SDS011;12898;50.520;12.152;2022-07-10T14:25:03;5.15;;;1.05;;
24801;SDS011;12898;50.520;12.152;2022-07-10T14:27:30;4.32;;;1.10;;
24801;SDS011;12898;50.520;12.152;2022-07-10T14:29:57;3.05;;;1.10;;
24801;SDS011;12898;50.520;12.152;2022-07-10T14:32:24;5.70;;;0.98;;
24801;SDS011;12898;50.520;12.152;2022-07-10T14:34:50;5.65;;;1.52;;
24801;SDS011;12898;50.520;12.152;2022-07-10T14:37:16;3.03;;;1.20;;
24801;SDS011;12898;50.520;12.152;2022-07-10T14:39:41;2.20;;;0.93;;
24801;SDS011;12898;50.520;12.152;2022-07-10T14:42:07;5.38;;;1.25;;
24801;SDS011;12898;50.520;12.152;2022-07-10T14:44:34;8.00;;;1.10;;
24801;SDS011;12898;50.520;12.152;2022-07-10T14:47:00;4.53;;;1.65;;
24801;SDS011;12898;50.520;12.152;2022-07-10T14:49:26;5.68;;;1.17;;
24801;SDS011;12898;50.520;12.152;2022-07-10T14:51:52;3.25;;;0.93;;
24801;SDS011;12898;50.520;12.152;2022-07-10T14:54:19;3.70;;;1.15;;
24801;SDS011;12898;50.520;12.152;2022-07-10T14:56:45;4.90;;;1.13;;
24801;SDS011;12898;50.520;12.152;2022-07-10T14:59:14;4.80;;;1.00;;
24801;SDS011;12898;50.520;12.152;2022-07-10T15:01:39;7.25;;;1.00;;
24801;SDS011;12898;50.520;12.152;2022-07-10T15:04:05;6.63;;;1.08;;
24801;SDS011;12898;50.520;12.152;2022-07-10T15:06:31;19.48;;;9.02;;
24801;SDS011;12898;50.520;12.152;2022-07-10T15:08:57;14.38;;;6.35;;
24801;SDS011;12898;50.520;12.152;2022-07-10T15:11:23;8.75;;;2.33;;
24801;SDS011;12898;50.520;12.152;2022-07-10T15:13:51;7.63;;;2.30;;
24801;SDS011;12898;50.520;12.152;2022-07-10T15:16:23;5.85;;;2.13;;
24801;SDS011;12898;50.520;12.152;2022-07-10T15:18:53;6.18;;;2.47;;
24801;SDS011;12898;50.520;12.152;2022-07-10T15:21:19;5.20;;;1.45;;
24801;SDS011;12898;50.520;12.152;2022-07-10T15:23:45;3.75;;;1.33;;
24801;SDS011;12898;50.520;12.152;2022-07-10T15:26:12;7.15;;;3.22;;
24801;SDS011;12898;50.520;12.152;2022-07-10T15:28:38;9.45;;;2.70;;
24801;SDS011;12898;50.520;12.152;2022-07-10T15:31:03;4.97;;;1.17;;
24801;SDS011;12898;50.520;12.152;2022-07-10T15:33:31;7.90;;;1.60;;
24801;SDS011;12898;50.520;12.152;2022-07-10T15:36:01;4.60;;;1.00;;